Time;durP1;ratioP1;P1;durP2;ratioP2;P2;SDS_P1;SDS_P2;PMS_P1;PMS_P2;Temp;Humidity;BMP_temperature;BMP_pressure;BME280_temperature;BME280_humidity;BME280_pressure;Samples;Min_cycle;Max_cycle;Signal;HPM_P1;HPM_P2
2024/03/29 00:00:03;;;;;;;14.50;7.50;;;;;;;10.87;100.00;99880.81;109561;1251;75527;-55
2024/03/29 00:02:38;;;;;;;11.80;6.70;;;;;;;10.87;100.00;99873.02;109466;1250;67329;-54
2024/03/29 00:05:07;;;;;;;12.30;5.90;;;;;;;10.89;100.00;99860.61;109450;1251;71490;-55
2024/03/29 00:07:34;;;;;;;11.20;5.30;;;;;;;10.90;100.00;99858.56;109471;1250;60048;-55
2024/03/29 00:10:02;;;;;;;9.00;5.20;;;;;;;10.90;100.00;99855.02;109466;1254;60212;-55
2024/03/29 00:12:29;;;;;;;7.70;3.80;;;;;;;10.92;100.00;99847.47;109464;1251;74254;-54
2024/03/29 00:14:56;;;;;;;7.10;3.60;;;;;;;10.93;100.00;99846.30;109502;1256;64664;-54
2024/03/29 00:17:24;;;;;;;6.30;3.20;;;;;;;10.93;100.00;99836.35;109489;1252;72734;-57
2024/03/29 00:19:51;;;;;;;5.90;2.70;;;;;;;10.96;100.00;99823.52;109532;1251;59750;-54
2024/03/29 00:22:19;;;;;;;8.50;3.90;;;;;;;11.00;100.00;99825.43;109487;1249;60106;-55
2024/03/29 00:24:46;;;;;;;8.80;3.30;;;;;;;11.02;100.00;99835.27;109466;1250;74837;-54
2024/03/29 00:27:14;;;;;;;6.30;2.90;;;;;;;11.03;100.00;99839.04;109503;1251;67461;-57
2024/03/29 00:29:42;;;;;;;8.00;3.50;;;;;;;11.06;100.00;99846.30;109439;1251;72069;-54
2024/03/29 00:32:10;;;;;;;6.90;3.10;;;;;;;11.07;100.00;99847.05;109462;1251;60135;-54
2024/03/29 00:34:37;;;;;;;4.90;2.30;;;;;;;11.08;100.00;99847.61;109515;1250;60106;-54
2024/03/29 00:37:05;;;;;;;7.30;2.80;;;;;;;11.09;100.00;99843.55;109474;1251;74185;-54
2024/03/29 00:39:32;;;;;;;7.30;2.80;;;;;;;11.09;100.00;99838.37;109451;1251;66563;-55
2024/03/29 00:42:00;;;;;;;6.40;2.50;;;;;;;11.10;100.00;99829.77;109475;1254;71458;-55
2024/03/29 00:44:27;;;;;;;5.20;2.30;;;;;;;11.09;100.00;99823.11;109497;1250;60166;-54
2024/03/29 00:46:55;;;;;;;4.30;2.60;;;;;;;11.10;100.00;99829.35;109483;1250;60101;-54
2024/03/29 00:49:22;;;;;;;6.20;2.40;;;;;;;11.13;100.00;99827.30;109496;1250;74816;-54
2024/03/29 00:51:50;;;;;;;5.50;2.60;;;;;;;11.15;100.00;99819.41;109432;1255;67022;-55
2024/03/29 00:54:18;;;;;;;5.70;2.60;;;;;;;11.15;100.00;99821.25;109516;1251;72829;-54
2024/03/29 00:56:46;;;;;;;5.40;2.90;;;;;;;11.17;100.00;99821.57;109469;1254;60262;-54
2024/03/29 00:59:13;;;;;;;4.70;2.60;;;;;;;11.15;100.00;99825.02;109514;1250;60064;-54
2024/03/29 01:01:41;;;;;;;5.20;2.50;;;;;;;11.14;100.00;99821.25;109496;1251;75684;-58
2024/03/29 01:04:08;;;;;;;5.80;2.70;;;;;;;11.12;100.00;99816.79;109461;1251;66894;-54
2024/03/29 01:06:37;;;;;;;6.30;3.00;;;;;;;11.11;100.00;99808.89;109472;1250;72797;-54
2024/03/29 01:09:04;;;;;;;7.60;2.80;;;;;;;11.10;100.00;99808.39;109466;1250;60144;-54
2024/03/29 01:11:32;;;;;;;5.10;2.50;;;;;;;11.08;100.00;99801.81;109463;1254;60276;-55
2024/03/29 01:13:59;;;;;;;6.00;3.10;;;;;;;11.05;100.00;99796.61;109464;1251;75562;-58
2024/03/29 01:16:27;;;;;;;8.20;3.20;;;;;;;11.03;100.00;99785.83;109538;1250;65761;-55
2024/03/29 01:18:55;;;;;;;7.60;3.40;;;;;;;11.00;100.00;99784.30;109496;1251;72828;-55
2024/03/29 01:21:22;;;;;;;8.50;3.50;;;;;;;10.96;100.00;99782.48;109506;1250;60131;-54
2024/03/29 01:23:49;;;;;;;6.40;3.30;;;;;;;10.94;100.00;99776.58;109515;1250;60131;-54
2024/03/29 01:26:17;;;;;;;7.90;3.60;;;;;;;10.94;100.00;99773.44;109433;1254;74525;-55
2024/03/29 01:28:44;;;;;;;8.50;4.60;;;;;;;10.98;100.00;99782.38;109509;1251;65795;-54
2024/03/29 01:31:12;;;;;;;11.40;4.50;;;;;;;11.02;100.00;99777.77;109495;1254;72781;-54
2024/03/29 01:33:40;;;;;;;8.70;4.30;;;;;;;11.06;100.00;99780.38;109452;1249;59718;-53
2024/03/29 01:36:08;;;;;;;9.10;4.30;;;;;;;11.09;100.00;99779.38;109495;1250;60299;-58
2024/03/29 01:38:35;;;;;;;7.80;3.80;;;;;;;11.12;100.00;99780.07;109411;1251;74259;-53
2024/03/29 01:41:03;;;;;;;11.60;4.50;;;;;;;11.14;100.00;99784.97;109494;1249;67010;-54
2024/03/29 01:43:30;;;;;;;8.70;4.10;;;;;;;11.14;100.00;99784.30;109504;1250;71138;-54
2024/03/29 01:45:58;;;;;;;11.80;5.90;;;;;;;11.14;100.00;99777.55;109430;1251;60212;-56
2024/03/29 01:48:26;;;;;;;14.50;6.90;;;;;;;11.15;100.00;99782.11;109435;1250;60083;-55
2024/03/29 01:50:56;;;;;;;18.60;7.70;;;;;;;11.13;100.00;99785.45;109471;1250;76584;-54
2024/03/29 01:53:24;;;;;;;28.70;10.80;;;;;;;11.12;100.00;99787.55;109488;1250;67276;-54
2024/03/29 01:55:51;;;;;;;26.30;11.10;;;;;;;11.12;100.00;99787.17;109460;1250;72767;-55
2024/03/29 01:58:19;;;;;;;23.60;11.10;;;;;;;11.13;100.00;99791.59;109345;1251;60104;-55
2024/03/29 02:00:57;;;;;;;21.90;9.30;;;;;;;11.11;100.00;99781.91;109382;1251;59786;-54
2024/03/29 02:03:25;;;;;;;18.90;7.70;;;;;;;11.11;100.00;99789.42;109446;1251;75611;-54
2024/03/29 02:05:53;;;;;;;11.50;5.60;;;;;;;11.09;100.00;99789.80;109346;1251;67167;-55
2024/03/29 02:08:20;;;;;;;9.30;4.30;;;;;;;11.10;100.00;99784.35;109409;1251;72749;-58
2024/03/29 02:10:48;;;;;;;10.30;4.00;;;;;;;11.10;100.00;99779.14;109434;1251;59752;-55
2024/03/29 02:13:15;;;;;;;10.00;4.00;;;;;;;11.07;100.00;99773.27;109517;1249;59810;-54
2024/03/29 02:15:43;;;;;;;6.40;3.40;;;;;;;11.05;100.00;99771.47;109518;1250;75503;-54
2024/03/29 02:18:10;;;;;;;6.80;3.30;;;;;;;11.02;100.00;99764.19;109501;1249;67058;-54
2024/03/29 02:20:38;;;;;;;6.40;2.90;;;;;;;10.99;100.00;99766.73;109401;1251;72704;-54
2024/03/29 02:23:08;;;;;;;5.60;2.80;;;;;;;10.96;100.00;99764.35;109417;1253;60113;-54
2024/03/29 02:25:36;;;;;;;6.00;3.30;;;;;;;10.95;100.00;99765.20;109441;1249;59717;-54
2024/03/29 02:28:04;;;;;;;6.90;3.00;;;;;;;10.94;100.00;99770.39;109474;1251;75463;-54
2024/03/29 02:30:32;;;;;;;5.70;2.80;;;;;;;10.93;100.00;99773.96;109474;1251;66965;-54
2024/03/29 02:32:59;;;;;;;6.50;3.10;;;;;;;10.93;100.00;99776.38;109439;1250;73207;-54
2024/03/29 02:35:27;;;;;;;8.00;3.60;;;;;;;10.92;100.00;99773.58;109414;1250;59760;-54
2024/03/29 02:37:54;;;;;;;6.00;3.00;;;;;;;10.90;100.00;99775.73;109471;1250;60116;-54
2024/03/29 02:40:22;;;;;;;6.30;3.30;;;;;;;10.90;100.00;99780.61;109460;1249;75501;-54
2024/03/29 02:42:49;;;;;;;6.60;2.40;;;;;;;10.89;100.00;99778.85;109427;1251;66935;-54
2024/03/29 02:45:17;;;;;;;7.50;3.10;;;;;;;10.88;100.00;99776.21;109466;1249;71197;-54
2024/03/29 02:47:44;;;;;;;7.40;2.90;;;;;;;10.88;100.00;99773.52;109431;1250;60251;-55
2024/03/29 02:50:13;;;;;;;7.00;2.50;;;;;;;10.88;100.00;99772.39;109459;1251;59703;-54
2024/03/29 02:52:40;;;;;;;7.80;2.90;;;;;;;10.88;100.00;99773.44;109503;1250;75530;-54
2024/03/29 02:55:10;;;;;;;43.70;29.70;;;;;;;10.87;100.00;99766.12;109552;1250;67106;-54
2024/03/29 02:57:38;;;;;;;14.60;9.80;;;;;;;10.86;100.00;99768.17;109490;1250;72728;-54
2024/03/29 03:00:12;;;;;;;11.10;5.10;;;;;;;10.83;100.00;99759.63;109484;1252;59973;-54
2024/03/29 03:02:39;;;;;;;8.80;4.40;;;;;;;10.79;100.00;99768.48;109457;1249;60136;-55
2024/03/29 03:05:07;;;;;;;28.10;22.50;;;;;;;10.74;100.00;99769.38;109402;1251;75952;-54
2024/03/29 03:13:06;;;;;;;260.30;162.10;;;;;;;10.55;100.00;99748.35;109448;1251;60034;-54
2024/03/29 03:15:34;;;;;;;133.30;85.50;;;;;;;10.47;100.00;99732.04;109517;1251;60146;-54
2024/03/29 03:18:01;;;;;;;36.50;25.40;;;;;;;10.42;100.00;99728.09;109483;1249;75514;-54
2024/03/29 03:20:30;;;;;;;31.30;21.40;;;;;;;10.38;100.00;99725.14;109493;1250;67078;-54
2024/03/29 03:22:58;;;;;;;17.30;10.90;;;;;;;10.33;100.00;99726.89;109410;1253;72685;-58
2024/03/29 03:25:26;;;;;;;50.10;29.60;;;;;;;10.31;100.00;99727.05;109446;1254;59730;-54
2024/03/29 03:27:54;;;;;;;31.30;20.50;;;;;;;10.29;100.00;99726.02;109453;1249;59707;-54
2024/03/29 03:30:22;;;;;;;27.20;16.60;;;;;;;10.26;100.00;99728.63;109535;1250;76107;-54
2024/03/29 03:32:49;;;;;;;12.40;6.70;;;;;;;10.25;100.00;99729.30;109441;1250;67350;-58
2024/03/29 03:35:16;;;;;;;9.30;4.50;;;;;;;10.24;100.00;99730.84;109431;1250;73662;-55
2024/03/29 03:37:44;;;;;;;10.10;4.40;;;;;;;10.24;100.00;99727.03;109428;1251;60014;-54
2024/03/29 03:40:11;;;;;;;12.30;4.80;;;;;;;10.23;100.00;99733.84;109451;1250;60405;-54
2024/03/29 03:42:39;;;;;;;14.90;5.70;;;;;;;10.23;100.00;99739.61;109481;1250;75506;-55
2024/03/29 03:45:07;;;;;;;11.10;4.70;;;;;;;10.25;100.00;99743.20;109453;1250;65798;-58
2024/03/29 03:47:34;;;;;;;6.60;3.00;;;;;;;10.30;100.00;99747.08;109476;1250;71481;-53
2024/03/29 03:50:02;;;;;;;8.30;3.40;;;;;;;10.37;100.00;99749.84;109464;1250;60224;-54
2024/03/29 03:52:30;;;;;;;6.40;2.70;;;;;;;10.45;100.00;99752.64;109503;1249;60105;-54
2024/03/29 03:54:57;;;;;;;5.90;2.50;;;;;;;10.54;100.00;99753.11;109477;1250;75554;-54
2024/03/29 03:57:24;;;;;;;5.10;1.90;;;;;;;10.63;100.00;99757.40;109405;1251;65285;-54
2024/03/29 03:59:52;;;;;;;5.50;1.90;;;;;;;10.70;100.00;99760.79;109474;1251;73072;-55
2024/03/29 04:02:19;;;;;;;8.10;2.00;;;;;;;10.77;100.00;99761.81;109480;1250;60138;-54
2024/03/29 04:04:47;;;;;;;4.70;1.90;;;;;;;10.86;100.00;99771.10;109457;1249;59762;-55
2024/03/29 04:07:15;;;;;;;6.50;2.00;;;;;;;10.96;100.00;99776.73;109521;1249;74123;-54
2024/03/29 04:09:42;;;;;;;6.20;1.80;;;;;;;11.07;100.00;99775.41;109411;1249;67453;-57
2024/03/29 04:12:09;;;;;;;5.00;1.70;;;;;;;11.16;100.00;99777.11;109483;1250;71056;-54
2024/03/29 04:14:37;;;;;;;5.50;2.10;;;;;;;11.25;100.00;99787.84;109446;1252;60549;-54
2024/03/29 04:17:05;;;;;;;6.20;1.70;;;;;;;11.34;100.00;99789.65;109448;1250;60235;-54
2024/03/29 04:19:32;;;;;;;4.70;2.00;;;;;;;11.39;100.00;99787.33;109415;1249;74254;-55
2024/03/29 04:22:00;;;;;;;5.70;2.00;;;;;;;11.42;100.00;99797.05;109412;1250;70614;-54
2024/03/29 04:24:30;;;;;;;6.60;2.20;;;;;;;11.43;100.00;99792.06;109415;1249;72716;-54
2024/03/29 04:26:58;;;;;;;6.10;2.10;;;;;;;11.44;100.00;99790.20;109468;1250;59789;-54
2024/03/29 04:29:25;;;;;;;5.30;1.60;;;;;;;11.47;100.00;99780.95;109526;1249;59849;-54
2024/03/29 04:31:53;;;;;;;4.50;1.90;;;;;;;11.52;100.00;99784.09;109396;1250;75559;-58
2024/03/29 04:34:20;;;;;;;4.10;1.50;;;;;;;11.59;100.00;99792.80;109493;1254;66969;-55
2024/03/29 04:36:47;;;;;;;4.50;1.60;;;;;;;11.71;100.00;99797.94;109454;1250;72849;-54
2024/03/29 04:39:15;;;;;;;5.40;2.30;;;;;;;11.88;100.00;99800.60;109453;1250;60090;-54
2024/03/29 04:41:42;;;;;;;6.20;2.10;;;;;;;12.14;100.00;99805.27;109444;1249;60082;-54
2024/03/29 04:44:12;;;;;;;8.00;1.70;;;;;;;12.45;98.97;99813.23;109435;1250;76004;-55
2024/03/29 04:46:39;;;;;;;5.60;1.80;;;;;;;12.62;94.10;99805.50;109492;1250;66250;-54
2024/03/29 04:49:07;;;;;;;6.90;2.10;;;;;;;12.65;91.22;99798.20;109455;1249;71395;-54
2024/03/29 04:51:34;;;;;;;5.40;1.90;;;;;;;12.60;90.28;99798.84;109440;1253;59791;-54
2024/03/29 04:54:02;;;;;;;6.20;2.00;;;;;;;12.53;91.49;99806.10;109431;1250;60204;-55
2024/03/29 04:56:29;;;;;;;8.10;2.00;;;;;;;12.43;93.37;99801.99;109442;1251;74076;-54
2024/03/29 04:58:56;;;;;;;5.10;2.40;;;;;;;12.37;95.90;99803.73;109503;1250;66885;-54
2024/03/29 05:01:24;;;;;;;7.20;2.00;;;;;;;12.39;98.59;99798.06;109471;1250;71438;-54
2024/03/29 05:03:51;;;;;;;6.70;2.00;;;;;;;12.56;100.00;99805.05;109495;1250;60978;-56
2024/03/29 05:06:19;;;;;;;4.90;1.80;;;;;;;12.86;100.00;99801.38;109464;1250;60610;-54
2024/03/29 05:08:46;;;;;;;19.70;2.80;;;;;;;13.27;97.81;99804.02;109491;1250;75529;-54
2024/03/29 05:11:15;;;;;;;7.90;2.40;;;;;;;13.63;92.94;99797.77;109451;1249;66804;-54
2024/03/29 05:13:42;;;;;;;7.40;2.80;;;;;;;13.91;88.15;99803.18;109482;1249;71427;-54
2024/03/29 05:16:10;;;;;;;6.60;2.20;;;;;;;14.15;84.18;99798.54;109425;1250;60209;-55
2024/03/29 05:18:37;;;;;;;7.10;2.60;;;;;;;14.39;79.94;99792.72;109479;1250;60090;-54
2024/03/29 05:21:04;;;;;;;5.70;2.50;;;;;;;14.61;77.55;99783.45;109552;1249;75507;-54
2024/03/29 05:23:32;;;;;;;7.40;1.90;;;;;;;14.83;75.53;99786.36;109510;1250;66878;-55
2024/03/29 05:25:59;;;;;;;5.70;2.10;;;;;;;15.01;73.97;99785.67;109463;1250;72760;-54
2024/03/29 05:28:27;;;;;;;5.90;1.90;;;;;;;15.11;72.51;99787.36;109479;1251;60631;-55
2024/03/29 05:30:55;;;;;;;8.80;2.00;;;;;;;15.12;73.38;99788.43;109472;1250;59761;-54
2024/03/29 05:33:22;;;;;;;8.80;3.00;;;;;;;15.05;75.73;99785.05;109449;1251;75498;-54
2024/03/29 05:35:49;;;;;;;6.20;1.80;;;;;;;14.94;77.63;99782.55;109478;1249;67183;-55
2024/03/29 05:38:17;;;;;;;7.40;1.70;;;;;;;14.81;79.43;99781.17;109371;1253;71439;-54
2024/03/29 05:40:46;;;;;;;8.00;1.90;;;;;;;14.64;82.17;99777.94;109441;1252;60130;-54
2024/03/29 05:43:14;;;;;;;9.10;3.70;;;;;;;14.47;87.05;99779.08;109450;1250;59721;-55
2024/03/29 05:45:41;;;;;;;6.60;3.00;;;;;;;14.35;89.24;99774.95;109476;1250;73907;-55
2024/03/29 05:48:08;;;;;;;9.00;2.40;;;;;;;14.21;92.74;99775.85;109439;1250;65661;-56
2024/03/29 05:50:36;;;;;;;6.80;2.10;;;;;;;14.13;96.84;99772.04;109421;1250;73442;-55
2024/03/29 05:53:04;;;;;;;8.30;2.20;;;;;;;14.12;98.33;99772.73;109475;1250;60318;-54
2024/03/29 05:55:34;;;;;;;11.70;2.10;;;;;;;14.10;99.75;99764.98;109512;1250;59852;-54
2024/03/29 05:58:01;;;;;;;8.20;1.80;;;;;;;14.09;100.00;99767.52;109457;1250;75473;-58
2024/03/29 06:00:29;;;;;;;7.00;2.60;;;;;;;14.14;100.00;99770.09;109475;1250;67024;-54
2024/03/29 06:02:57;;;;;;;9.20;2.70;;;;;;;14.17;100.00;99765.98;109439;1251;72780;-55
2024/03/29 06:05:24;;;;;;;6.50;2.50;;;;;;;14.14;100.00;99766.02;109447;1250;59709;-54
2024/03/29 06:07:52;;;;;;;8.60;2.20;;;;;;;14.17;100.00;99761.55;109464;1250;60925;-59
2024/03/29 06:10:19;;;;;;;9.10;2.20;;;;;;;14.31;100.00;99766.50;109407;1250;75536;-55
2024/03/29 06:12:47;;;;;;;9.50;2.50;;;;;;;14.53;100.00;99764.86;109460;1250;67226;-56
2024/03/29 06:18:03;;;;;;;8.60;2.20;;;;;;;15.17;100.00;99766.66;109413;1250;59745;-54
2024/03/29 06:20:31;;;;;;;7.00;2.60;;;;;;;15.47;97.58;99769.11;109479;1250;60102;-56
2024/03/29 06:22:58;;;;;;;6.90;2.50;;;;;;;15.78;95.69;99760.98;109485;1250;75528;-55
2024/03/29 06:25:26;;;;;;;10.40;2.60;;;;;;;16.17;92.13;99759.33;109464;1250;65637;-55
2024/03/29 06:27:53;;;;;;;8.00;3.00;;;;;;;16.54;86.42;99757.65;109452;1252;72734;-59
2024/03/29 06:30:22;;;;;;;8.80;3.30;;;;;;;16.87;83.13;99749.16;109488;1250;60862;-55
2024/03/29 06:32:49;;;;;;;9.00;3.30;;;;;;;17.16;76.88;99749.67;109448;1249;59683;-55
2024/03/29 06:35:20;;;;;;;11.20;2.90;;;;;;;17.37;74.13;99749.52;109511;1250;76855;-56
2024/03/29 06:37:47;;;;;;;7.60;2.40;;;;;;;17.60;73.24;99743.30;109468;1250;68906;-54
2024/03/29 06:40:15;;;;;;;9.60;2.40;;;;;;;17.82;71.22;99744.19;109462;1251;74155;-59
2024/03/29 06:42:42;;;;;;;7.10;2.60;;;;;;;17.97;70.83;99746.46;109437;1251;61085;-55
2024/03/29 06:45:10;;;;;;;9.90;3.20;;;;;;;18.08;69.23;99751.20;109500;1250;61376;-55
2024/03/29 06:47:37;;;;;;;6.70;3.10;;;;;;;18.12;69.66;99749.50;109450;1249;78444;-55
2024/03/29 06:50:06;;;;;;;8.10;2.70;;;;;;;18.25;71.34;99745.55;109478;1250;69482;-56
2024/03/29 06:52:33;;;;;;;7.30;2.60;;;;;;;18.60;71.95;99749.27;109447;1250;72782;-55
2024/03/29 06:55:00;;;;;;;6.50;2.60;;;;;;;19.11;68.63;99751.67;109454;1250;60332;-55
2024/03/29 06:57:31;;;;;;;8.40;2.80;;;;;;;19.58;65.03;99752.16;109398;1249;62452;-55
2024/03/29 06:59:58;;;;;;;9.50;2.90;;;;;;;20.08;60.93;99746.95;109487;1250;74218;-55
2024/03/29 07:02:26;;;;;;;8.50;3.20;;;;;;;20.56;57.91;99736.75;109473;1250;66899;-59
2024/03/29 07:04:53;;;;;;;7.60;2.60;;;;;;;21.09;54.83;99734.65;109439;1250;75268;-55
2024/03/29 07:07:21;;;;;;;12.70;3.10;;;;;;;21.53;51.35;99738.58;109427;1250;61665;-55
2024/03/29 07:09:49;;;;;;;9.10;2.90;;;;;;;21.77;49.32;99730.25;109418;1249;61898;-56
2024/03/29 07:12:17;;;;;;;11.00;3.10;;;;;;;21.89;48.39;99725.23;109364;1250;77599;-54
2024/03/29 07:14:45;;;;;;;13.20;3.30;;;;;;;21.94;48.34;99724.20;109433;1250;69297;-55
2024/03/29 07:17:13;;;;;;;8.20;2.90;;;;;;;21.96;48.12;99723.66;109457;1250;74873;-55
2024/03/29 07:19:40;;;;;;;9.40;2.90;;;;;;;21.95;48.82;99721.55;109478;1249;60168;-55
2024/03/29 07:22:08;;;;;;;8.40;2.50;;;;;;;21.95;48.93;99720.33;109458;1250;62412;-54
2024/03/29 07:24:43;;;;;;;12.90;3.20;;;;;;;21.79;49.90;99715.13;109481;1250;76775;-55
2024/03/29 07:27:12;;;;;;;11.00;3.60;;;;;;;21.54;51.59;99718.16;109481;1250;65620;-55
2024/03/29 07:29:42;;;;;;;10.90;3.80;;;;;;;21.26;53.56;99718.98;109461;1250;71526;-56
2024/03/29 07:32:09;;;;;;;14.60;4.20;;;;;;;20.98;55.33;99722.31;109402;1250;59743;-55
2024/03/29 07:34:39;;;;;;;9.80;3.10;;;;;;;20.73;57.74;99718.20;109475;1250;60214;-54
2024/03/29 07:37:08;;;;;;;11.40;3.10;;;;;;;20.42;60.15;99721.61;109432;1250;78072;-56
2024/03/29 07:39:35;;;;;;;19.50;9.30;;;;;;;20.10;61.74;99724.73;109512;1250;69452;-56
2024/03/29 07:42:04;;;;;;;10.70;4.30;;;;;;;19.93;65.65;99719.68;109441;1251;74812;-57
2024/03/29 07:44:31;;;;;;;9.60;3.30;;;;;;;20.15;68.18;99715.91;109450;1250;59935;-56
2024/03/29 07:46:58;;;;;;;10.40;4.00;;;;;;;20.64;66.32;99711.25;109481;1250;60504;-56
2024/03/29 07:49:26;;;;;;;10.80;3.20;;;;;;;21.27;61.98;99705.03;109489;1250;77976;-56
2024/03/29 07:51:53;;;;;;;10.10;3.30;;;;;;;21.92;56.45;99703.67;109531;1249;65250;-55
2024/03/29 07:54:21;;;;;;;9.80;3.20;;;;;;;22.46;52.68;99701.64;109437;1250;74579;-55
2024/03/29 07:56:49;;;;;;;10.20;3.00;;;;;;;22.98;50.11;99699.15;109436;1249;62636;-56
2024/03/29 07:59:19;;;;;;;13.50;3.90;;;;;;;23.49;47.78;99696.73;109497;1250;62503;-56
2024/03/29 08:01:46;;;;;;;14.50;4.10;;;;;;;23.88;45.83;99691.27;109491;1253;77944;-55
2024/03/29 08:04:14;;;;;;;9.70;3.80;;;;;;;24.21;44.96;99689.79;109329;1250;67040;-57
2024/03/29 08:06:41;;;;;;;13.40;4.60;;;;;;;24.61;44.08;99695.46;109406;1252;74943;-56
2024/03/29 08:09:13;;;;;;;10.70;3.70;;;;;;;24.96;42.05;99694.18;109435;1250;61527;-56
2024/03/29 08:11:41;;;;;;;12.70;4.40;;;;;;;25.11;41.78;99688.48;109380;1250;60121;-56
2024/03/29 08:14:08;;;;;;;13.70;3.60;;;;;;;25.29;40.92;99687.48;109427;1250;78023;-56
2024/03/29 08:16:36;;;;;;;11.30;4.50;;;;;;;25.38;40.79;99686.39;109439;1250;67869;-56
2024/03/29 08:19:04;;;;;;;9.80;5.00;;;;;;;25.45;40.39;99682.67;109442;1249;75279;-56
2024/03/29 08:21:31;;;;;;;15.00;6.30;;;;;;;25.59;39.96;99676.16;109481;1250;62603;-56
2024/03/29 08:24:00;;;;;;;12.10;4.90;;;;;;;25.71;39.86;99672.03;109482;1250;62536;-57
2024/03/29 08:26:29;;;;;;;14.40;4.40;;;;;;;25.74;39.69;99666.73;109374;1255;75562;-58
2024/03/29 08:28:56;;;;;;;15.60;4.50;;;;;;;25.81;39.59;99659.63;109463;1250;68530;-56
2024/03/29 08:31:24;;;;;;;13.30;4.10;;;;;;;25.91;39.70;99660.06;109458;1249;74613;-56
2024/03/29 08:33:52;;;;;;;12.50;4.40;;;;;;;26.15;39.69;99656.73;109439;1252;62796;-56
2024/03/29 08:36:29;;;;;;;11.50;4.60;;;;;;;26.45;39.01;99651.36;109420;1250;61637;-56
2024/03/29 08:38:57;;;;;;;10.40;4.10;;;;;;;26.63;38.52;99645.85;109512;1250;76239;-57
2024/03/29 08:41:24;;;;;;;12.90;4.00;;;;;;;26.72;38.02;99648.20;109510;1250;69700;-54
2024/03/29 08:43:52;;;;;;;15.10;3.90;;;;;;;26.59;38.19;99643.39;109443;1249;75176;-54
2024/03/29 08:46:19;;;;;;;10.50;4.10;;;;;;;26.69;38.09;99642.77;109438;1250;61867;-58
2024/03/29 08:48:47;;;;;;;10.30;4.50;;;;;;;26.87;37.28;99634.76;109405;1250;62530;-56
2024/03/29 08:51:15;;;;;;;16.70;4.10;;;;;;;26.90;37.67;99635.65;109522;1250;77913;-57
2024/03/29 08:53:43;;;;;;;12.50;3.00;;;;;;;26.99;37.69;99634.63;109451;1250;68357;-56
2024/03/29 08:56:11;;;;;;;10.40;3.60;;;;;;;27.13;36.62;99628.71;109452;1250;74097;-59
2024/03/29 08:58:39;;;;;;;10.90;3.00;;;;;;;27.13;36.52;99622.90;109447;1250;62440;-56
2024/03/29 09:01:07;;;;;;;12.80;3.90;;;;;;;27.20;36.45;99623.52;109437;1250;62562;-56
2024/03/29 09:03:34;;;;;;;12.40;3.90;;;;;;;27.25;36.21;99627.40;109423;1250;77496;-56
2024/03/29 09:06:03;;;;;;;11.60;3.50;;;;;;;27.24;35.89;99621.64;109511;1250;68898;-56
2024/03/29 09:08:30;;;;;;;12.40;3.60;;;;;;;27.18;35.94;99622.81;109456;1252;74193;-56
2024/03/29 09:10:58;;;;;;;13.10;4.00;;;;;;;27.13;36.03;99622.14;109433;1250;61624;-56
2024/03/29 09:13:26;;;;;;;15.90;3.60;;;;;;;27.15;36.14;99617.48;109464;1253;60884;-56
2024/03/29 09:15:53;;;;;;;11.10;3.40;;;;;;;27.14;35.86;99616.35;109486;1250;78012;-56
2024/03/29 09:18:26;;;;;;;10.90;3.60;;;;;;;27.07;35.84;99609.11;109575;1250;69521;-56
2024/03/29 09:20:58;;;;;;;16.00;3.40;;;;;;;27.01;35.66;99613.99;109349;1252;75242;-59
2024/03/29 09:23:28;;;;;;;14.90;4.00;;;;;;;26.89;35.73;99608.20;109366;1250;62647;-56
2024/03/29 09:25:56;;;;;;;14.90;3.90;;;;;;;26.61;35.60;99608.99;109497;1249;62612;-56
2024/03/29 09:28:23;;;;;;;14.40;5.00;;;;;;;26.16;36.23;99601.92;109479;1250;76879;-56
2024/03/29 09:30:57;;;;;;;8.50;3.20;;;;;;;25.78;37.22;99599.33;109455;1250;68763;-55
2024/03/29 09:33:25;;;;;;;11.40;3.50;;;;;;;25.71;37.63;99593.98;109483;1249;75499;-55
2024/03/29 09:35:53;;;;;;;10.50;3.70;;;;;;;25.68;38.07;99595.42;109441;1250;61911;-55
2024/03/29 09:38:21;;;;;;;10.20;3.70;;;;;;;25.63;37.88;99590.50;109469;1250;62556;-58
2024/03/29 09:40:51;;;;;;;10.20;3.40;;;;;;;25.61;38.00;99586.45;109474;1250;77946;-56
2024/03/29 09:43:19;;;;;;;10.90;4.20;;;;;;;25.57;38.16;99585.10;109383;1249;68531;-55
2024/03/29 09:45:57;;;;;;;13.60;3.40;;;;;;;25.54;38.62;99580.78;109457;1250;74698;-58
2024/03/29 09:48:24;;;;;;;13.70;3.90;;;;;;;25.65;38.31;99579.16;109421;1252;61996;-55
2024/03/29 09:50:52;;;;;;;9.70;3.40;;;;;;;25.92;38.25;99578.13;109268;1250;61505;-55
2024/03/29 09:53:20;;;;;;;17.30;4.80;;;;;;;26.28;37.34;99577.88;109499;1250;76513;-55
2024/03/29 09:55:48;;;;;;;10.10;3.50;;;;;;;26.35;36.52;99572.21;109483;1250;67817;-56
2024/03/29 09:58:19;;;;;;;9.60;3.60;;;;;;;26.09;36.61;99579.17;109381;1250;73532;-56
2024/03/29 10:00:46;;;;;;;10.20;3.20;;;;;;;25.74;37.42;99579.56;109433;1250;62611;-56
2024/03/29 10:03:14;;;;;;;9.80;3.00;;;;;;;25.59;38.13;99565.89;109449;1250;62279;-55
2024/03/29 10:05:41;;;;;;;11.70;3.20;;;;;;;25.68;38.20;99570.61;109488;1250;75629;-56
2024/03/29 10:08:09;;;;;;;15.20;4.20;;;;;;;25.81;37.77;99562.34;109436;1250;69579;-55
2024/03/29 10:10:37;;;;;;;13.70;3.70;;;;;;;25.69;37.50;99564.17;109288;1250;75190;-56
2024/03/29 10:13:04;;;;;;;11.30;3.40;;;;;;;25.49;37.97;99558.46;109496;1252;62154;-56
2024/03/29 10:15:37;;;;;;;12.10;4.00;;;;;;;25.25;38.41;99562.63;109438;1250;62198;-55
2024/03/29 10:18:05;;;;;;;9.80;3.60;;;;;;;25.00;39.37;99553.48;109421;1250;78030;-56
2024/03/29 10:20:33;;;;;;;15.00;4.00;;;;;;;24.76;39.72;99555.90;109466;1250;67954;-56
2024/03/29 10:23:02;;;;;;;12.50;3.30;;;;;;;24.48;40.52;99552.59;109467;1250;73653;-56
2024/03/29 10:25:36;;;;;;;16.20;7.70;;;;;;;24.23;41.52;99542.10;109455;1250;62602;-55
2024/03/29 10:28:04;;;;;;;13.50;5.70;;;;;;;24.14;42.91;99543.75;109457;1250;61044;-60
2024/03/29 10:30:31;;;;;;;24.80;8.40;;;;;;;24.36;43.18;99536.52;109385;1250;76290;-56
2024/03/29 10:33:00;;;;;;;26.20;19.10;;;;;;;24.78;41.94;99532.63;109473;1250;67648;-56
2024/03/29 10:35:28;;;;;;;37.80;30.70;;;;;;;25.22;41.28;99529.65;109428;1250;75496;-55
2024/03/29 10:37:56;;;;;;;53.50;47.80;;;;;;;25.68;39.80;99528.44;109482;1249;62568;-55
2024/03/29 10:40:25;;;;;;;29.40;23.00;;;;;;;25.91;38.88;99528.31;109429;1250;62671;-60
2024/03/29 10:42:52;;;;;;;16.90;10.50;;;;;;;26.05;38.51;99517.89;109401;1250;77590;-56
2024/03/29 10:45:21;;;;;;;13.30;5.80;;;;;;;26.15;38.21;99522.63;109435;1250;67985;-56
2024/03/29 10:47:49;;;;;;;14.10;7.80;;;;;;;26.06;37.56;99520.75;109361;1249;75307;-56
2024/03/29 10:50:19;;;;;;;10.10;4.90;;;;;;;25.79;38.23;99514.69;109441;1251;62634;-56
2024/03/29 10:52:48;;;;;;;11.60;3.70;;;;;;;25.61;38.90;99511.13;109438;1250;63223;-55
2024/03/29 10:55:15;;;;;;;9.50;4.10;;;;;;;25.54;39.04;99505.73;109440;1250;78001;-57
2024/03/29 10:57:44;;;;;;;12.70;4.90;;;;;;;25.63;39.40;99502.42;109503;1250;68828;-55
2024/03/29 11:00:18;;;;;;;12.80;3.60;;;;;;;25.89;39.45;99501.21;109351;1250;74168;-55
2024/03/29 11:03:20;;;;;;;9.40;3.70;;;;;;;26.30;38.25;99492.17;109404;1250;59764;-54
2024/03/29 11:05:49;;;;;;;10.60;5.50;;;;;;;26.59;36.94;99485.36;109485;1250;61979;-59
2024/03/29 11:08:23;;;;;;;12.20;3.30;;;;;;;26.31;36.62;99491.23;109461;1250;77253;-55
2024/03/29 11:10:51;;;;;;;10.50;4.10;;;;;;;25.74;37.54;99492.00;109465;1250;67877;-55
2024/03/29 11:13:37;;;;;;;10.70;4.00;;;;;;;25.31;38.52;99486.16;109375;1250;75323;-55
2024/03/29 11:16:05;;;;;;;12.90;4.10;;;;;;;24.96;39.52;99479.33;109273;1252;208871;-55
2024/03/29 11:18:33;;;;;;;14.30;4.60;;;;;;;24.78;40.89;99477.38;109503;1250;60935;-55
2024/03/29 11:21:00;;;;;;;10.60;5.10;;;;;;;24.93;41.66;99474.81;109271;1250;77863;-55
2024/03/29 11:23:28;;;;;;;11.50;4.70;;;;;;;25.34;40.63;99475.10;109511;1250;69484;-56
2024/03/29 11:26:02;;;;;;;8.80;3.50;;;;;;;25.73;38.87;99472.96;109489;1250;75226;-55
2024/03/29 11:28:31;;;;;;;11.80;3.60;;;;;;;25.96;37.53;99465.06;109446;1250;61905;-55